createdAt,value
2018-07-16T00:00:17.098Z,931.88
2018-07-16T00:01:17.056Z,931.82
2018-07-16T00:02:17.048Z,931.85
2018-07-16T00:03:17.022Z,931.89
2018-07-16T00:04:17.006Z,931.89
2018-07-16T00:05:16.977Z,931.87
2018-07-16T00:06:16.960Z,931.90
2018-07-16T00:07:16.940Z,931.89
2018-07-16T00:08:16.915Z,931.93
2018-07-16T00:09:16.897Z,931.93
2018-07-16T00:10:16.872Z,931.93
2018-07-16T00:11:16.849Z,931.95
2018-07-16T00:12:16.830Z,931.98
2018-07-16T00:13:16.815Z,932.01
2018-07-16T00:14:16.786Z,932.04
2018-07-16T00:15:16.765Z,932.03
2018-07-16T00:16:16.748Z,932.07
2018-07-16T00:17:16.723Z,932.10
2018-07-16T00:18:16.705Z,932.07
2018-07-16T00:19:16.679Z,932.14
2018-07-16T00:20:16.655Z,932.16
2018-07-16T00:21:16.633Z,932.18
2018-07-16T00:22:16.611Z,932.20
2018-07-16T00:23:16.592Z,932.26
2018-07-16T00:24:16.571Z,932.28
2018-07-16T00:25:16.548Z,932.21
2018-07-16T00:26:16.519Z,932.23
2018-07-16T00:27:16.494Z,932.21
2018-07-16T00:28:16.485Z,932.27
2018-07-16T00:29:16.463Z,932.31
2018-07-16T00:30:16.441Z,932.29
2018-07-16T00:31:16.422Z,932.29
2018-07-16T00:32:16.383Z,932.33
2018-07-16T00:33:16.387Z,932.36
2018-07-16T00:34:16.355Z,932.38
2018-07-16T00:35:16.343Z,932.37
2018-07-16T00:36:16.295Z,932.37
2018-07-16T00:37:16.291Z,932.43
2018-07-16T00:38:16.274Z,932.41
2018-07-16T00:39:16.248Z,932.46
2018-07-16T00:40:16.224Z,932.44
2018-07-16T00:41:16.208Z,932.41
2018-07-16T00:42:16.181Z,932.46
2018-07-16T00:43:16.167Z,932.46
2018-07-16T00:44:16.176Z,932.46
2018-07-16T00:45:16.118Z,932.46
2018-07-16T00:46:16.088Z,932.43
2018-07-16T00:47:16.058Z,932.49
2018-07-16T00:48:16.052Z,932.46
2018-07-16T00:49:16.029Z,932.45
2018-07-16T00:50:15.990Z,932.44
2018-07-16T00:51:15.985Z,932.47
2018-07-16T00:52:15.965Z,932.45
2018-07-16T00:53:15.941Z,932.49
2018-07-16T00:54:15.906Z,932.42
2018-07-16T00:55:15.901Z,932.43
2018-07-16T00:56:15.879Z,932.47
2018-07-16T00:57:15.845Z,932.53
2018-07-16T00:58:15.823Z,932.50
2018-07-16T00:59:15.794Z,932.51
2018-07-16T01:00:15.793Z,932.51
2018-07-16T01:01:15.773Z,932.48
2018-07-16T01:02:15.748Z,932.51
2018-07-16T01:03:15.723Z,932.53
2018-07-16T01:04:15.701Z,932.56
2018-07-16T01:05:15.685Z,932.57
2018-07-16T01:06:15.668Z,932.64
2018-07-16T01:07:15.640Z,932.61
2018-07-16T01:08:15.620Z,932.62
2018-07-16T01:09:15.596Z,932.62
2018-07-16T01:10:15.572Z,932.58
2018-07-16T01:11:15.553Z,932.61
2018-07-16T01:12:15.525Z,932.64
2018-07-16T01:13:15.503Z,932.66
2018-07-16T01:14:15.493Z,932.60
2018-07-16T01:15:15.466Z,932.64
2018-07-16T01:16:15.439Z,932.64
2018-07-16T01:17:15.429Z,932.59
2018-07-16T01:18:15.404Z,932.63
2018-07-16T01:19:15.367Z,932.61
2018-07-16T01:20:15.354Z,932.61
2018-07-16T01:21:15.320Z,932.67
2018-07-16T01:22:15.307Z,932.62
2018-07-16T01:23:15.270Z,932.63
2018-07-16T01:24:15.263Z,932.64
2018-07-16T01:25:15.239Z,932.62
2018-07-16T01:26:15.219Z,932.61
2018-07-16T01:27:15.194Z,932.69
2018-07-16T01:28:15.182Z,932.62
2018-07-16T01:29:15.149Z,932.70
2018-07-16T01:30:15.128Z,932.66
2018-07-16T01:31:15.104Z,932.70
2018-07-16T01:32:15.089Z,932.73
2018-07-16T01:33:15.063Z,932.75
2018-07-16T01:34:15.038Z,932.76
2018-07-16T01:35:15.006Z,932.76
2018-07-16T01:36:14.997Z,932.75
2018-07-16T01:37:14.974Z,932.79
2018-07-16T01:38:14.954Z,932.77
2018-07-16T01:39:14.933Z,932.77
2018-07-16T01:40:14.912Z,932.78
2018-07-16T01:41:14.886Z,932.76
2018-07-16T01:42:14.863Z,932.76
2018-07-16T01:43:14.845Z,932.71
2018-07-16T01:44:14.817Z,932.76
2018-07-16T01:45:14.801Z,932.70
2018-07-16T01:46:14.759Z,932.75
2018-07-16T01:47:14.749Z,932.79
2018-07-16T01:48:14.725Z,932.77
2018-07-16T01:49:14.705Z,932.77
2018-07-16T01:50:14.686Z,932.80
2018-07-16T01:51:14.664Z,932.77
2018-07-16T01:52:14.642Z,932.71
2018-07-16T01:53:14.621Z,932.76
2018-07-16T01:54:14.591Z,932.77
2018-07-16T01:55:14.576Z,932.75
2018-07-16T01:56:14.551Z,932.74
2018-07-16T01:57:14.507Z,932.77
2018-07-16T01:58:14.497Z,932.77
2018-07-16T01:59:14.484Z,932.77
2018-07-16T02:00:14.461Z,932.76
2018-07-16T02:01:14.423Z,932.80
2018-07-16T02:02:14.408Z,932.78
2018-07-16T02:03:14.373Z,932.77
2018-07-16T02:04:14.371Z,932.77
2018-07-16T02:05:14.347Z,932.81
2018-07-16T02:06:14.319Z,932.82
2018-07-16T02:07:14.300Z,932.81
2018-07-16T02:08:14.268Z,932.76
2018-07-16T02:09:14.244Z,932.79
2018-07-16T02:10:14.239Z,932.82
2018-07-16T02:11:14.210Z,932.79
2018-07-16T02:12:14.191Z,932.83
2018-07-16T02:13:14.148Z,932.82
2018-07-16T02:14:14.125Z,932.84
2018-07-16T02:15:14.125Z,932.87
2018-07-16T02:16:14.096Z,932.86
2018-07-16T02:17:14.076Z,932.90
2018-07-16T02:18:14.051Z,932.91
2018-07-16T02:19:14.031Z,932.92
2018-07-16T02:20:14.010Z,932.90
2018-07-16T02:21:13.984Z,932.94
2018-07-16T02:22:13.964Z,932.95
2018-07-16T02:23:13.943Z,932.95
2018-07-16T02:24:13.918Z,932.96
2018-07-16T02:25:13.942Z,932.92
2018-07-16T02:26:13.870Z,932.93
2018-07-16T02:27:13.853Z,932.90
2018-07-16T02:28:13.829Z,932.94
2018-07-16T02:29:13.801Z,932.97
2018-07-16T02:30:13.765Z,932.92
2018-07-16T02:31:13.754Z,932.94
2018-07-16T02:32:13.737Z,932.98
2018-07-16T02:33:13.702Z,932.97
2018-07-16T02:34:13.694Z,932.98
2018-07-16T02:35:13.658Z,932.98
2018-07-16T02:36:13.646Z,933.00
2018-07-16T02:37:13.620Z,932.97
2018-07-16T02:38:13.590Z,933.01
2018-07-16T02:39:13.581Z,932.97
2018-07-16T02:40:13.555Z,932.95
2018-07-16T02:41:13.537Z,932.92
2018-07-16T02:42:13.506Z,932.94
2018-07-16T02:43:13.486Z,932.98
2018-07-16T02:44:13.462Z,932.99
2018-07-16T02:45:13.439Z,932.97
2018-07-16T02:46:13.420Z,932.99
2018-07-16T02:47:13.399Z,933.04
2018-07-16T02:48:13.375Z,933.04
2018-07-16T02:49:13.352Z,933.04
2018-07-16T02:50:13.328Z,933.00
2018-07-16T02:51:13.307Z,933.01
2018-07-16T02:52:13.280Z,933.03
2018-07-16T02:53:13.260Z,933.02
2018-07-16T02:54:13.234Z,933.05
2018-07-16T02:55:13.203Z,933.07
2018-07-16T02:56:13.260Z,933.08
2018-07-16T02:57:13.252Z,933.07
2018-07-16T02:58:13.148Z,933.14
2018-07-16T02:59:13.117Z,933.14
2018-07-16T03:00:13.099Z,933.07
2018-07-16T03:01:13.076Z,933.08
2018-07-16T03:02:13.048Z,933.07
2018-07-16T03:03:13.031Z,933.07
2018-07-16T03:04:13.008Z,933.10
2018-07-16T03:05:12.982Z,933.10
2018-07-16T03:06:12.965Z,933.14
2018-07-16T03:07:12.937Z,933.15
2018-07-16T03:08:12.920Z,933.15
2018-07-16T03:09:12.935Z,933.14
2018-07-16T03:10:12.876Z,933.17
2018-07-16T03:11:12.847Z,933.15
2018-07-16T03:12:12.828Z,933.20
2018-07-16T03:13:12.807Z,933.18
2018-07-16T03:14:12.763Z,933.15
2018-07-16T03:15:12.759Z,933.13
2018-07-16T03:16:12.736Z,933.15
2018-07-16T03:17:12.710Z,933.13
2018-07-16T03:18:12.709Z,933.13
2018-07-16T03:19:12.663Z,933.17
2018-07-16T03:20:12.633Z,933.16
2018-07-16T03:21:12.600Z,933.16
2018-07-16T03:22:12.593Z,933.16
2018-07-16T03:23:12.560Z,933.20
2018-07-16T03:24:12.550Z,933.17
2018-07-16T03:25:12.522Z,933.14
2018-07-16T03:26:12.498Z,933.13
2018-07-16T03:27:12.480Z,933.10
2018-07-16T03:28:12.453Z,933.11
2018-07-16T03:29:12.429Z,933.13
2018-07-16T03:30:12.407Z,933.15
2018-07-16T03:31:12.389Z,933.17
2018-07-16T03:32:12.363Z,933.19
2018-07-16T03:33:12.346Z,933.18
2018-07-16T03:34:12.316Z,933.15
2018-07-16T03:35:12.276Z,933.18
2018-07-16T03:36:12.258Z,933.17
2018-07-16T03:37:12.248Z,933.16
2018-07-16T03:38:12.225Z,933.16
2018-07-16T03:39:12.197Z,933.17
2018-07-16T03:40:12.323Z,933.19
2018-07-16T03:41:12.144Z,933.10
2018-07-16T03:42:12.136Z,933.16
2018-07-16T03:43:12.114Z,933.16
2018-07-16T03:44:12.070Z,933.15
2018-07-16T03:45:12.064Z,933.13
2018-07-16T03:46:12.039Z,933.17
2018-07-16T03:47:12.015Z,933.14
2018-07-16T03:48:11.994Z,933.10
2018-07-16T03:49:11.974Z,933.10
2018-07-16T03:50:11.940Z,933.10
2018-07-16T03:51:11.928Z,933.07
2018-07-16T03:52:11.895Z,933.10
2018-07-16T03:53:11.879Z,933.09
2018-07-16T03:54:11.856Z,933.04
2018-07-16T03:55:11.979Z,933.08
2018-07-16T03:56:11.797Z,933.09
2018-07-16T03:57:11.789Z,933.05
2018-07-16T03:58:11.816Z,933.09
2018-07-16T03:59:11.737Z,933.11
2018-07-16T04:00:11.714Z,933.07
2018-07-16T04:01:11.683Z,933.09
2018-07-16T04:02:11.654Z,933.05
2018-07-16T04:03:11.647Z,933.06
2018-07-16T04:04:11.617Z,933.02
2018-07-16T04:05:11.759Z,933.06
2018-07-16T04:06:11.570Z,933.06
2018-07-16T04:07:11.551Z,933.05
2018-07-16T04:08:11.534Z,933.03
2018-07-16T04:09:11.505Z,933.07
2018-07-16T04:10:11.476Z,933.03
2018-07-16T04:11:11.461Z,933.09
2018-07-16T04:12:11.442Z,933.10
2018-07-16T04:13:11.408Z,933.11
2018-07-16T04:14:11.385Z,933.09
2018-07-16T04:15:11.365Z,933.15
2018-07-16T04:16:11.340Z,933.10
2018-07-16T04:17:11.324Z,933.10
2018-07-16T04:18:11.385Z,933.09
2018-07-16T04:19:11.274Z,933.15
2018-07-16T04:20:11.232Z,933.09
2018-07-16T04:21:11.227Z,933.08
2018-07-16T04:22:11.201Z,933.11
2018-07-16T04:23:11.174Z,933.14
2018-07-16T04:24:11.153Z,933.14
2018-07-16T04:25:11.127Z,933.16
2018-07-16T04:26:11.099Z,933.17
2018-07-16T04:27:11.083Z,933.18
2018-07-16T04:28:11.061Z,933.20
2018-07-16T04:29:11.033Z,933.15
2018-07-16T04:30:11.009Z,933.13
2018-07-16T04:31:10.976Z,933.16
2018-07-16T04:32:10.962Z,933.14
2018-07-16T04:33:10.937Z,933.15
2018-07-16T04:34:10.917Z,933.15
2018-07-16T04:35:10.894Z,933.13
2018-07-16T04:36:10.872Z,933.14
2018-07-16T04:37:10.848Z,933.10
2018-07-16T04:38:10.805Z,933.12
2018-07-16T04:39:10.800Z,933.10
2018-07-16T04:40:10.771Z,933.09
2018-07-16T04:41:10.753Z,933.09
2018-07-16T04:42:10.728Z,933.08
2018-07-16T04:43:10.702Z,933.09
2018-07-16T04:44:10.675Z,933.09
2018-07-16T04:45:10.656Z,933.11
2018-07-16T04:46:10.616Z,933.11
2018-07-16T04:47:10.606Z,933.09
2018-07-16T04:48:10.565Z,933.09
2018-07-16T04:49:10.547Z,933.10
2018-07-16T04:50:10.536Z,933.10
2018-07-16T04:51:10.493Z,933.09
2018-07-16T04:52:10.487Z,933.08
2018-07-16T04:53:10.465Z,933.07
2018-07-16T04:54:10.451Z,933.07
2018-07-16T04:55:10.417Z,933.06
2018-07-16T04:56:10.454Z,933.08
2018-07-16T04:57:10.376Z,933.05
2018-07-16T04:58:10.344Z,933.10
2018-07-16T04:59:10.326Z,933.07
2018-07-16T05:00:10.294Z,932.99
2018-07-16T05:01:10.274Z,933.08
2018-07-16T05:02:10.252Z,933.04
2018-07-16T05:03:10.235Z,933.06
2018-07-16T05:04:10.185Z,933.07
2018-07-16T05:05:10.178Z,933.00
2018-07-16T05:06:10.162Z,933.05
2018-07-16T05:07:10.117Z,933.04
2018-07-16T05:08:10.115Z,933.08
2018-07-16T05:09:10.066Z,933.04
2018-07-16T05:10:10.055Z,933.07
2018-07-16T05:11:10.032Z,933.08
2018-07-16T05:12:10.019Z,933.07
2018-07-16T05:13:09.988Z,933.08
2018-07-16T05:14:09.953Z,933.07
2018-07-16T05:15:09.939Z,933.05
2018-07-16T05:16:10.024Z,933.07
2018-07-16T05:17:09.891Z,933.03
2018-07-16T05:18:09.875Z,933.09
2018-07-16T05:19:09.843Z,933.03
2018-07-16T05:20:09.820Z,933.03
2018-07-16T05:21:09.799Z,933.05
2018-07-16T05:22:09.769Z,933.03
2018-07-16T05:23:09.751Z,933.02
2018-07-16T05:24:09.757Z,932.99
2018-07-16T05:25:09.705Z,932.96
2018-07-16T05:26:09.680Z,932.98
2018-07-16T05:27:09.764Z,932.98
2018-07-16T05:28:09.632Z,932.94
2018-07-16T05:29:09.606Z,932.95
2018-07-16T05:30:09.584Z,932.98
2018-07-16T05:31:09.540Z,932.94
2018-07-16T05:32:09.673Z,932.96
2018-07-16T05:33:09.515Z,932.99
2018-07-16T05:34:09.486Z,932.99
2018-07-16T05:35:09.460Z,932.97
2018-07-16T05:36:09.441Z,932.94
2018-07-16T05:37:09.402Z,932.96
2018-07-16T05:38:09.474Z,932.96
2018-07-16T05:39:09.353Z,932.99
2018-07-16T05:40:09.343Z,932.97
2018-07-16T05:41:09.321Z,932.96
2018-07-16T05:42:09.303Z,932.96
2018-07-16T05:43:09.269Z,932.94
2018-07-16T05:44:09.246Z,932.97
2018-07-16T05:45:09.217Z,933.00
2018-07-16T05:46:09.201Z,933.01
2018-07-16T05:47:09.172Z,932.98
2018-07-16T05:48:09.149Z,932.98
2018-07-16T05:49:09.131Z,933.02
2018-07-16T05:50:09.098Z,933.03
2018-07-16T05:51:09.069Z,933.05
2018-07-16T05:52:09.042Z,932.99
2018-07-16T05:53:09.031Z,933.01
2018-07-16T05:54:09.011Z,933.01
2018-07-16T05:55:08.994Z,932.95
2018-07-16T05:56:08.966Z,933.00
2018-07-16T05:57:08.939Z,932.99
2018-07-16T05:58:08.934Z,932.96
2018-07-16T05:59:08.986Z,932.96
2018-07-16T06:00:08.847Z,932.93
2018-07-16T06:01:08.827Z,932.94
2018-07-16T06:02:08.812Z,932.92
2018-07-16T06:03:08.791Z,932.91
2018-07-16T06:04:08.772Z,932.88
2018-07-16T06:05:08.755Z,932.88
2018-07-16T06:06:08.720Z,932.87
2018-07-16T06:07:08.791Z,932.86
2018-07-16T06:08:08.676Z,932.81
2018-07-16T06:09:08.652Z,932.81
2018-07-16T06:10:08.622Z,932.80
2018-07-16T06:11:08.603Z,932.80
2018-07-16T06:12:08.685Z,932.83
2018-07-16T06:13:08.550Z,932.85
2018-07-16T06:14:08.514Z,932.82
2018-07-16T06:15:08.503Z,932.83
2018-07-16T06:16:08.478Z,932.80
2018-07-16T06:17:08.458Z,932.84
2018-07-16T06:18:08.428Z,932.77
2018-07-16T06:19:08.393Z,932.80
2018-07-16T06:20:08.384Z,932.81
2018-07-16T06:21:08.354Z,932.82
2018-07-16T06:22:08.335Z,932.83
2018-07-16T06:23:08.311Z,932.83
2018-07-16T06:24:08.320Z,932.83
2018-07-16T06:25:08.263Z,932.80
2018-07-16T06:26:08.237Z,932.74
2018-07-16T06:27:08.212Z,932.77
2018-07-16T06:28:08.185Z,932.77
2018-07-16T06:29:08.161Z,932.73
2018-07-16T06:30:08.121Z,932.73
2018-07-16T06:31:08.114Z,932.70
2018-07-16T06:32:08.209Z,932.73
2018-07-16T06:33:08.066Z,932.69
2018-07-16T06:34:08.042Z,932.68
2018-07-16T06:35:08.016Z,932.68
2018-07-16T06:36:07.998Z,932.68
2018-07-16T06:37:07.977Z,932.66
2018-07-16T06:38:07.941Z,932.67
2018-07-16T06:39:07.919Z,932.66
2018-07-16T06:40:07.936Z,932.67
2018-07-16T06:41:08.144Z,932.65
2018-07-16T06:42:07.848Z,932.63
2018-07-16T06:43:07.808Z,932.62
2018-07-16T06:44:07.791Z,932.68
2018-07-16T06:45:07.771Z,932.66
2018-07-16T06:46:07.747Z,932.60
2018-07-16T06:47:07.708Z,932.61
2018-07-16T06:48:07.700Z,932.60
2018-07-16T06:49:07.676Z,932.61
2018-07-16T06:50:07.655Z,932.62
2018-07-16T06:51:07.685Z,932.64
2018-07-16T06:52:07.674Z,932.67
2018-07-16T06:53:07.645Z,932.64
2018-07-16T06:54:07.624Z,932.69
2018-07-16T06:55:07.620Z,932.66
2018-07-16T06:56:07.577Z,932.70
2018-07-16T06:57:07.556Z,932.69
2018-07-16T06:58:07.526Z,932.66
2018-07-16T06:59:07.505Z,932.69
2018-07-16T07:00:07.469Z,932.68
2018-07-16T07:01:07.455Z,932.67
2018-07-16T07:02:07.393Z,932.66
2018-07-16T07:03:07.336Z,932.68
2018-07-16T07:04:07.322Z,932.67
2018-07-16T07:05:07.306Z,932.68
2018-07-16T07:06:07.277Z,932.68
2018-07-16T07:07:07.243Z,932.63
2018-07-16T07:08:07.223Z,932.63
2018-07-16T07:09:07.205Z,932.64
2018-07-16T07:10:07.187Z,932.60
2018-07-16T07:11:07.161Z,932.62
2018-07-16T07:12:07.133Z,932.63
2018-07-16T07:13:07.107Z,932.62
2018-07-16T07:14:07.079Z,932.61
2018-07-16T07:15:07.065Z,932.62
2018-07-16T07:16:07.021Z,932.62
2018-07-16T07:17:07.028Z,932.57
2018-07-16T07:18:07.008Z,932.57
2018-07-16T07:19:06.962Z,932.56
2018-07-16T07:20:06.942Z,932.57
2018-07-16T07:21:06.914Z,932.62
2018-07-16T07:22:06.892Z,932.64
2018-07-16T07:23:06.864Z,932.61
2018-07-16T07:24:06.841Z,932.61
2018-07-16T07:25:06.823Z,932.61
2018-07-16T07:26:06.797Z,932.64
2018-07-16T07:27:06.768Z,932.60
2018-07-16T07:28:06.742Z,932.66
2018-07-16T07:29:06.719Z,932.62
2018-07-16T07:30:06.683Z,932.62
2018-07-16T07:31:06.678Z,932.64
2018-07-16T07:32:06.649Z,932.65
2018-07-16T07:33:06.621Z,932.62
2018-07-16T07:34:06.611Z,932.64
2018-07-16T07:35:06.647Z,932.61
2018-07-16T07:36:06.658Z,932.67
2018-07-16T07:37:06.527Z,932.63
2018-07-16T07:38:06.507Z,932.64
2018-07-16T07:39:06.485Z,932.62
2018-07-16T07:40:06.438Z,932.61
2018-07-16T07:41:06.558Z,932.62
2018-07-16T07:42:06.402Z,932.59
2018-07-16T07:43:06.379Z,932.54
2018-07-16T07:44:06.355Z,932.55
2018-07-16T07:45:06.333Z,932.55
2018-07-16T07:46:06.306Z,932.56
2018-07-16T07:47:06.285Z,932.55
2018-07-16T07:48:06.260Z,932.50
2018-07-16T07:49:06.236Z,932.51
2018-07-16T07:50:06.210Z,932.52
2018-07-16T07:51:06.186Z,932.51
2018-07-16T07:52:06.165Z,932.51
2018-07-16T07:53:06.247Z,932.51
2018-07-16T07:54:06.155Z,932.46
2018-07-16T07:55:06.568Z,932.41
2018-07-16T07:56:06.054Z,932.42
2018-07-16T07:57:06.045Z,932.42
2018-07-16T07:58:06.022Z,932.41
2018-07-16T07:59:05.995Z,932.37
2018-07-16T08:00:05.968Z,932.37
2018-07-16T08:01:05.945Z,932.36
2018-07-16T08:02:05.922Z,932.33
2018-07-16T08:03:05.897Z,932.36
2018-07-16T08:04:05.872Z,932.38
2018-07-16T08:05:05.851Z,932.42
2018-07-16T08:06:05.938Z,932.40
2018-07-16T08:07:05.786Z,932.38
2018-07-16T08:08:05.769Z,932.40
2018-07-16T08:09:05.755Z,932.37
2018-07-16T08:10:05.710Z,932.34
2018-07-16T08:11:05.706Z,932.34
2018-07-16T08:12:05.658Z,932.36
2018-07-16T08:13:05.644Z,932.37
2018-07-16T08:14:05.626Z,932.36
2018-07-16T08:15:05.584Z,932.38
2018-07-16T08:16:05.573Z,932.33
2018-07-16T08:17:05.549Z,932.34
2018-07-16T08:18:05.528Z,932.39
2018-07-16T08:19:05.498Z,932.34
2018-07-16T08:20:05.460Z,932.35
2018-07-16T08:21:05.571Z,932.35
2018-07-16T08:22:05.409Z,932.34
2018-07-16T08:23:05.403Z,932.34
2018-07-16T08:24:05.376Z,932.36
2018-07-16T08:25:05.432Z,932.38
2018-07-16T08:26:05.334Z,932.36
2018-07-16T08:27:05.309Z,932.38
2018-07-16T08:28:05.301Z,932.42
2018-07-16T08:29:05.254Z,932.42
2018-07-16T08:30:05.226Z,932.40
2018-07-16T08:31:05.200Z,932.47
2018-07-16T08:32:05.176Z,932.48
2018-07-16T08:33:05.154Z,932.50
2018-07-16T08:34:05.133Z,932.51
2018-07-16T08:35:05.115Z,932.50
2018-07-16T08:36:05.077Z,932.58
2018-07-16T08:37:05.044Z,932.62
2018-07-16T08:38:05.012Z,932.62
2018-07-16T08:39:05.039Z,932.63
2018-07-16T08:40:04.982Z,932.62
2018-07-16T08:41:04.955Z,932.65
2018-07-16T08:42:04.934Z,932.65
2018-07-16T08:43:04.910Z,932.68
2018-07-16T08:44:04.894Z,932.67
2018-07-16T08:45:04.854Z,932.66
2018-07-16T08:46:04.828Z,932.68
2018-07-16T08:47:04.795Z,932.71
2018-07-16T08:48:04.785Z,932.72
2018-07-16T08:49:04.765Z,932.75
2018-07-16T08:50:04.738Z,932.78
2018-07-16T08:51:04.708Z,932.79
2018-07-16T08:52:04.670Z,932.80
2018-07-16T08:53:04.652Z,932.79
2018-07-16T08:54:04.633Z,932.77
2018-07-16T08:55:04.611Z,932.78
2018-07-16T08:56:04.588Z,932.74
2018-07-16T08:57:04.564Z,932.73
2018-07-16T08:58:04.538Z,932.76
2018-07-16T08:59:04.573Z,932.76
2018-07-16T09:00:04.478Z,932.81
2018-07-16T09:01:04.445Z,932.82
2018-07-16T09:02:04.432Z,932.79
2018-07-16T09:03:04.513Z,932.85
2018-07-16T09:04:04.452Z,932.85
2018-07-16T09:05:04.360Z,932.88
2018-07-16T09:06:04.339Z,932.89
2018-07-16T09:07:37.522Z,932.90
2018-07-16T09:08:04.301Z,932.93
2018-07-16T09:09:04.268Z,932.93
2018-07-16T09:10:04.247Z,932.93
2018-07-16T09:11:04.244Z,932.93
2018-07-16T09:12:04.189Z,932.97
2018-07-16T09:13:04.204Z,932.95
2018-07-16T09:14:04.126Z,933.02
2018-07-16T09:15:04.111Z,933.02
2018-07-16T09:16:04.089Z,933.00
2018-07-16T09:17:04.065Z,933.05
2018-07-16T09:18:04.040Z,933.04
2018-07-16T09:19:04.078Z,933.05
2018-07-16T09:20:03.989Z,933.04
2018-07-16T09:21:03.970Z,933.08
2018-07-16T09:22:04.030Z,933.03
2018-07-16T09:23:03.914Z,933.08
2018-07-16T09:24:03.892Z,933.08
2018-07-16T09:25:03.871Z,933.09
2018-07-16T09:26:03.839Z,933.13
2018-07-16T09:27:03.928Z,933.12
2018-07-16T09:28:03.787Z,933.15
2018-07-16T09:29:03.754Z,933.16
2018-07-16T09:30:03.746Z,933.11
2018-07-16T09:31:03.717Z,933.13
2018-07-16T09:32:03.694Z,933.10
2018-07-16T09:33:03.674Z,933.14
2018-07-16T09:34:03.641Z,933.18
2018-07-16T09:35:03.721Z,933.15
2018-07-16T09:36:03.595Z,933.21
2018-07-16T09:37:03.574Z,933.17
2018-07-16T09:38:03.531Z,933.17
2018-07-16T09:39:03.583Z,933.14
2018-07-16T09:40:03.497Z,933.17
2018-07-16T09:41:03.468Z,933.18
2018-07-16T09:42:03.443Z,933.18
2018-07-16T09:43:03.421Z,933.21
2018-07-16T09:44:03.398Z,933.21
2018-07-16T09:45:03.378Z,933.30
2018-07-16T09:46:03.345Z,933.25
2018-07-16T09:47:03.320Z,933.25
2018-07-16T09:48:03.298Z,933.26
2018-07-16T09:49:03.272Z,933.25
2018-07-16T09:50:03.246Z,933.27
2018-07-16T09:51:03.223Z,933.33
2018-07-16T09:52:03.194Z,933.33
2018-07-16T09:53:03.155Z,933.33
2018-07-16T09:54:03.154Z,933.34
2018-07-16T09:55:03.124Z,933.34
2018-07-16T09:56:03.112Z,933.40
2018-07-16T09:57:03.073Z,933.37
2018-07-16T09:58:03.045Z,933.38
2018-07-16T09:59:03.022Z,933.41
2018-07-16T10:00:03.000Z,933.40
2018-07-16T10:01:02.974Z,933.43
2018-07-16T10:02:02.946Z,933.43
2018-07-16T10:03:02.922Z,933.44
2018-07-16T10:04:02.901Z,933.51
2018-07-16T10:05:02.877Z,933.51
2018-07-16T10:06:02.846Z,933.53
2018-07-16T10:07:02.819Z,933.51
2018-07-16T10:08:02.800Z,933.54
2018-07-16T10:09:02.776Z,933.56
2018-07-16T10:10:02.736Z,933.58
2018-07-16T10:11:02.723Z,933.57
2018-07-16T10:12:02.697Z,933.57
2018-07-16T10:13:02.659Z,933.57
2018-07-16T10:14:02.786Z,933.58
2018-07-16T10:15:02.626Z,933.62
2018-07-16T10:16:02.604Z,933.60
2018-07-16T10:17:02.559Z,933.68
2018-07-16T10:18:02.550Z,933.67
2018-07-16T10:19:02.530Z,933.69
2018-07-16T10:20:02.503Z,933.71
2018-07-16T10:21:02.480Z,933.73
2018-07-16T10:22:02.460Z,933.74
2018-07-16T10:23:02.430Z,933.69
2018-07-16T10:24:02.402Z,933.70
2018-07-16T10:25:02.391Z,933.68
2018-07-16T10:26:02.356Z,933.74
2018-07-16T10:27:02.335Z,933.76
2018-07-16T10:28:02.293Z,933.81
2018-07-16T10:29:02.290Z,933.79
2018-07-16T10:30:02.258Z,933.78
2018-07-16T10:31:02.242Z,933.78
2018-07-16T10:32:02.214Z,933.77
2018-07-16T10:33:02.192Z,933.77
2018-07-16T10:34:02.171Z,933.81
2018-07-16T10:35:02.148Z,933.83
2018-07-16T10:36:02.112Z,933.80
2018-07-16T10:37:02.104Z,933.84
2018-07-16T10:38:02.073Z,933.91
2018-07-16T10:39:02.084Z,933.94
2018-07-16T10:40:02.035Z,933.98
2018-07-16T10:41:02.009Z,933.99
2018-07-16T10:42:01.986Z,933.99
2018-07-16T10:43:01.959Z,934.02
2018-07-16T10:44:01.940Z,933.97
2018-07-16T10:45:01.900Z,934.00
2018-07-16T10:46:01.896Z,934.02
2018-07-16T10:47:01.871Z,934.07
2018-07-16T10:48:01.836Z,934.07
2018-07-16T10:49:01.855Z,934.13
2018-07-16T10:50:01.810Z,934.17
2018-07-16T10:51:01.781Z,934.17
2018-07-16T10:52:01.865Z,934.21
2018-07-16T10:53:01.739Z,934.22
2018-07-16T10:54:01.709Z,934.28
2018-07-16T10:55:01.817Z,934.31
2018-07-16T10:56:01.668Z,934.33
2018-07-16T10:57:01.646Z,934.35
2018-07-16T10:58:01.624Z,934.43
2018-07-16T10:59:01.603Z,934.41
2018-07-16T11:00:01.578Z,934.46
2018-07-16T11:01:01.555Z,934.46
2018-07-16T11:02:01.625Z,934.41
2018-07-16T11:03:01.521Z,934.46
2018-07-16T11:04:01.497Z,934.52
2018-07-16T11:05:01.457Z,934.54
2018-07-16T11:06:01.457Z,934.59
2018-07-16T11:07:01.428Z,934.62
2018-07-16T11:08:01.412Z,934.65
2018-07-16T11:09:01.376Z,934.70
2018-07-16T11:10:01.379Z,934.63
2018-07-16T11:11:01.347Z,934.73
2018-07-16T11:12:01.327Z,934.72
2018-07-16T11:13:01.293Z,934.77
2018-07-16T11:14:01.292Z,934.81
2018-07-16T11:15:01.268Z,934.85
2018-07-16T11:16:01.250Z,934.82
2018-07-16T11:17:01.229Z,934.87
2018-07-16T11:18:01.209Z,934.84
2018-07-16T11:19:01.184Z,934.84
2018-07-16T11:20:01.166Z,934.87
2018-07-16T11:21:01.247Z,934.88
2018-07-16T11:22:01.117Z,935.26
2018-07-16T11:23:01.112Z,935.52
2018-07-16T11:24:01.085Z,935.56
2018-07-16T11:25:01.073Z,935.53
2018-07-16T11:26:01.045Z,935.53
2018-07-16T11:27:01.027Z,935.59
2018-07-16T11:28:00.997Z,935.58
2018-07-16T11:29:00.994Z,935.55
2018-07-16T11:30:00.957Z,935.61
2018-07-16T11:31:00.952Z,935.59
2018-07-16T11:32:00.934Z,935.45
2018-07-16T11:33:00.917Z,935.14
2018-07-16T11:34:00.890Z,934.97
2018-07-16T11:35:00.878Z,935.04
2018-07-16T11:36:00.856Z,935.09
2018-07-16T11:37:00.837Z,935.09
2018-07-16T11:38:00.817Z,935.13
2018-07-16T11:39:00.798Z,935.27
2018-07-16T11:40:00.783Z,935.63
2018-07-16T11:41:00.768Z,935.85
2018-07-16T11:42:00.746Z,935.90
2018-07-16T11:43:00.722Z,935.70
2018-07-16T11:44:00.703Z,935.35
2018-07-16T11:45:00.686Z,935.19
2018-07-16T11:46:00.721Z,935.23
2018-07-16T11:47:00.650Z,935.30
2018-07-16T11:48:00.630Z,935.75
2018-07-16T11:49:00.615Z,935.66
2018-07-16T11:50:00.600Z,935.31
2018-07-16T11:51:00.583Z,935.27
2018-07-16T11:52:00.563Z,935.26
2018-07-16T11:53:00.645Z,935.26
2018-07-16T11:54:00.526Z,935.24
2018-07-16T11:55:00.511Z,935.28
2018-07-16T11:56:00.493Z,935.26
2018-07-16T11:57:00.479Z,935.45
2018-07-16T11:58:00.457Z,935.66
2018-07-16T11:59:00.554Z,935.52
2018-07-16T12:00:00.427Z,935.35
2018-07-16T12:01:00.404Z,935.36
2018-07-16T12:02:00.388Z,935.37
2018-07-16T12:03:00.373Z,935.39
2018-07-16T12:04:00.356Z,935.45
2018-07-16T12:05:00.428Z,935.65
2018-07-16T12:06:00.320Z,935.88
2018-07-16T12:07:00.300Z,935.97
2018-07-16T12:08:00.291Z,936.06
2018-07-16T12:09:00.272Z,935.92
2018-07-16T12:10:00.256Z,935.58
2018-07-16T12:11:00.235Z,935.45
2018-07-16T12:12:00.218Z,935.42
2018-07-16T12:13:00.203Z,935.42
2018-07-16T12:14:00.183Z,935.46
2018-07-16T12:15:00.166Z,935.53
2018-07-16T12:16:00.149Z,935.59
2018-07-16T12:17:00.134Z,935.59
2018-07-16T12:18:00.113Z,935.59
2018-07-16T12:19:00.097Z,935.57
2018-07-16T12:20:00.087Z,935.64
2018-07-16T12:21:00.067Z,935.65
2018-07-16T12:22:00.056Z,935.55
2018-07-16T12:23:00.314Z,935.56
2018-07-16T12:24:00.018Z,935.63
2018-07-16T12:24:59.999Z,935.83
2018-07-16T12:26:00.118Z,936.03
2018-07-16T12:26:59.964Z,936.04
2018-07-16T12:27:59.950Z,936.11